createdAt,value
2023-01-11T00:00:59.162Z,22.80
2023-01-11T00:02:01.109Z,23.49
2023-01-11T00:03:05.114Z,22.56
2023-01-11T00:04:07.022Z,22.57
2023-01-11T00:05:09.728Z,21.69
2023-01-11T00:06:12.212Z,22.00
2023-01-11T00:07:14.006Z,21.83
2023-01-11T00:08:16.176Z,22.11
2023-01-11T00:09:18.127Z,21.05
2023-01-11T00:10:21.791Z,21.74
2023-01-11T00:11:23.738Z,22.14
2023-01-11T00:12:25.659Z,20.06
2023-01-11T00:13:28.605Z,20.10
2023-01-11T00:14:30.566Z,21.42
2023-01-11T00:15:32.704Z,21.92
2023-01-11T00:16:34.503Z,20.85
2023-01-11T00:17:36.596Z,20.87
2023-01-11T00:18:39.551Z,19.61
2023-01-11T00:19:41.867Z,19.59
2023-01-11T00:20:44.568Z,20.55
2023-01-11T00:21:50.163Z,19.83
2023-01-11T00:22:52.718Z,20.02
2023-01-11T00:23:54.713Z,20.05
2023-01-11T00:24:56.526Z,20.61
2023-01-11T00:25:58.413Z,19.79
2023-01-11T00:27:00.198Z,20.67
2023-01-11T00:28:02.445Z,21.29
2023-01-11T00:29:04.584Z,19.70
2023-01-11T00:30:07.086Z,20.15
2023-01-11T00:31:09.566Z,20.26
2023-01-11T00:32:11.649Z,20.00
2023-01-11T00:33:13.541Z,19.47
2023-01-11T00:34:15.489Z,19.80
2023-01-11T00:35:17.351Z,20.66
2023-01-11T00:36:19.314Z,21.16
2023-01-11T00:37:21.827Z,20.35
2023-01-11T00:38:42.898Z,19.98
2023-01-11T00:39:44.964Z,20.27
2023-01-11T00:40:46.794Z,20.22
2023-01-11T00:42:07.427Z,20.14
2023-01-11T00:43:28.692Z,21.02
2023-01-11T00:44:49.705Z,20.85
2023-01-11T00:46:10.614Z,20.67
2023-01-11T00:47:36.117Z,21.61
2023-01-11T00:48:38.169Z,20.32
2023-01-11T00:49:40.268Z,20.10
2023-01-11T00:50:42.273Z,21.30
2023-01-11T00:51:44.328Z,22.46
2023-01-11T00:52:46.284Z,21.61
2023-01-11T00:53:48.869Z,21.35
2023-01-11T00:54:51.086Z,21.28
2023-01-11T00:55:52.971Z,21.33
2023-01-11T00:56:54.856Z,20.89
2023-01-11T00:57:56.724Z,22.19
2023-01-11T00:58:58.616Z,21.36
2023-01-11T01:00:00.669Z,20.82
2023-01-11T01:01:07.466Z,21.30
2023-01-11T01:02:11.293Z,20.38
2023-01-11T01:03:13.507Z,20.52
2023-01-11T01:04:15.591Z,20.65
2023-01-11T01:05:18.897Z,22.00
2023-01-11T01:06:20.808Z,21.63
2023-01-11T01:07:23.031Z,22.01
2023-01-11T01:08:24.973Z,22.10
2023-01-11T01:09:26.993Z,22.47
2023-01-11T01:10:28.734Z,22.01
2023-01-11T01:11:30.624Z,21.20
2023-01-11T01:12:53.818Z,22.00
2023-01-11T01:14:15.727Z,21.82
2023-01-11T01:15:17.757Z,21.41
2023-01-11T01:16:19.834Z,23.01
2023-01-11T01:17:21.660Z,23.08
2023-01-11T01:18:23.904Z,22.90
2023-01-11T01:19:28.213Z,22.33
2023-01-11T01:20:30.169Z,21.95
2023-01-11T01:21:32.009Z,22.13
2023-01-11T01:22:34.517Z,23.37
2023-01-11T01:23:36.821Z,22.99
2023-01-11T01:24:38.738Z,23.42
2023-01-11T01:25:40.576Z,23.97
2023-01-11T01:26:42.879Z,25.21
2023-01-11T01:27:45.247Z,23.80
2023-01-11T01:28:47.604Z,23.72
2023-01-11T01:29:49.920Z,24.83
2023-01-11T01:30:52.533Z,25.30
2023-01-11T01:31:54.376Z,23.92
2023-01-11T01:32:56.372Z,24.10
2023-01-11T01:33:58.836Z,24.20
2023-01-11T01:35:00.884Z,26.21
2023-01-11T01:36:04.213Z,24.96
2023-01-11T01:37:12.067Z,24.37
2023-01-11T01:38:14.047Z,23.59
2023-01-11T01:39:16.139Z,24.51
2023-01-11T01:40:18.268Z,25.89
2023-01-11T01:41:20.207Z,24.36
2023-01-11T01:42:24.127Z,23.95
2023-01-11T01:43:46.788Z,25.49
2023-01-11T01:45:03.369Z,25.70
2023-01-11T01:46:05.378Z,24.62
2023-01-11T01:47:07.441Z,24.61
2023-01-11T01:48:15.323Z,25.23
2023-01-11T01:49:18.185Z,26.59
2023-01-11T01:50:20.185Z,26.98
2023-01-11T01:51:32.330Z,25.59
2023-01-11T01:52:36.427Z,26.57
2023-01-11T01:53:43.456Z,25.56
2023-01-11T01:54:49.342Z,25.34
2023-01-11T01:56:01.627Z,24.77
2023-01-11T01:57:19.686Z,25.36
2023-01-11T01:58:33.056Z,25.14
2023-01-11T01:59:35.804Z,26.47
2023-01-11T02:00:44.619Z,24.44
2023-01-11T02:01:49.921Z,23.38
2023-01-11T02:02:53.490Z,22.86
2023-01-11T02:03:55.814Z,24.41
2023-01-11T02:04:59.180Z,25.41
2023-01-11T02:06:01.301Z,25.61
2023-01-11T02:07:15.922Z,24.59
2023-01-11T02:08:27.870Z,25.28
2023-01-11T02:09:48.914Z,25.07
2023-01-11T02:10:53.337Z,24.01
2023-01-11T02:11:58.798Z,24.86
2023-01-11T02:13:05.634Z,23.62
2023-01-11T02:14:16.538Z,24.27
2023-01-11T02:15:21.624Z,23.88
2023-01-11T02:16:23.732Z,23.99
2023-01-11T02:17:25.647Z,24.68
2023-01-11T02:18:27.547Z,24.01
2023-01-11T02:20:07.097Z,24.31
2023-01-11T02:22:01.238Z,23.89
2023-01-11T02:23:40.915Z,22.60
2023-01-11T02:25:29.093Z,23.50
2023-01-11T02:26:49.395Z,24.15
2023-01-11T02:28:16.131Z,24.38
2023-01-11T02:29:44.283Z,23.79
2023-01-11T02:31:21.995Z,22.59
2023-01-11T02:32:53.400Z,23.78
2023-01-11T02:34:17.246Z,22.11
2023-01-11T02:35:57.221Z,22.58
2023-01-11T02:37:18.070Z,22.70
2023-01-11T02:38:40.732Z,24.25
2023-01-11T02:39:55.161Z,22.82
2023-01-11T02:41:19.400Z,21.81
2023-01-11T02:43:02.438Z,22.51
2023-01-11T02:44:33.169Z,22.01
2023-01-11T02:45:52.710Z,23.85
2023-01-11T02:47:04.865Z,22.63
2023-01-11T02:48:50.052Z,23.09
2023-01-11T02:50:18.020Z,23.54
2023-01-11T02:51:35.748Z,21.36
2023-01-11T02:52:54.955Z,23.11
2023-01-11T02:54:07.149Z,22.55
2023-01-11T02:55:15.538Z,23.04
2023-01-11T02:56:23.428Z,23.47
2023-01-11T02:57:29.494Z,23.23
2023-01-11T02:58:38.916Z,24.18
2023-01-11T02:59:42.331Z,23.87
2023-01-11T03:00:46.658Z,24.00
2023-01-11T03:01:53.415Z,23.69
2023-01-11T03:03:25.008Z,24.40
2023-01-11T03:04:36.824Z,24.52
2023-01-11T03:05:54.304Z,23.84
2023-01-11T03:07:23.648Z,21.75
2023-01-11T03:08:56.209Z,21.24
2023-01-11T03:10:06.977Z,20.90
2023-01-11T03:11:37.443Z,22.47
2023-01-11T03:13:24.903Z,21.94
2023-01-11T03:14:59.435Z,20.12
2023-01-11T03:16:09.450Z,19.61
2023-01-11T03:17:22.237Z,20.51
2023-01-11T03:18:58.719Z,21.19
2023-01-11T03:20:19.524Z,20.90
2023-01-11T03:21:34.703Z,21.30
2023-01-11T03:23:02.969Z,21.50
2023-01-11T03:24:22.228Z,20.87
2023-01-11T03:25:40.790Z,21.35
2023-01-11T03:27:01.788Z,20.11
2023-01-11T03:28:22.105Z,21.44
2023-01-11T03:29:49.926Z,20.66
2023-01-11T03:31:26.385Z,21.35
2023-01-11T03:32:54.863Z,20.54
2023-01-11T03:34:25.393Z,19.50
2023-01-11T03:35:39.644Z,20.25
2023-01-11T03:37:06.847Z,20.88
2023-01-11T03:38:20.645Z,21.91
2023-01-11T03:39:32.026Z,21.08
2023-01-11T03:40:41.632Z,21.62
2023-01-11T03:41:46.214Z,21.77
2023-01-11T03:43:11.628Z,22.79
2023-01-11T03:44:18.511Z,21.94
2023-01-11T03:45:21.218Z,22.83
2023-01-11T03:46:29.388Z,22.57
2023-01-11T03:47:35.237Z,23.23
2023-01-11T03:48:47.583Z,22.06
2023-01-11T03:50:07.055Z,24.14
2023-01-11T03:51:14.207Z,23.31
2023-01-11T03:52:23.043Z,24.47
2023-01-11T03:53:29.864Z,26.26
2023-01-11T03:54:33.981Z,24.91
2023-01-11T03:55:40.746Z,25.03
2023-01-11T03:57:06.188Z,26.16
2023-01-11T03:58:09.604Z,24.04
2023-01-11T03:59:12.188Z,23.21
2023-01-11T04:00:14.328Z,23.24
2023-01-11T04:01:16.883Z,23.43
2023-01-11T04:02:22.650Z,22.94
2023-01-11T04:03:27.051Z,23.43
2023-01-11T04:04:29.614Z,22.66
2023-01-11T04:05:34.159Z,24.20
2023-01-11T04:06:38.414Z,23.97
2023-01-11T04:07:40.273Z,24.68
2023-01-11T04:08:42.175Z,24.40
2023-01-11T04:09:44.737Z,25.47
2023-01-11T04:10:46.648Z,26.93
2023-01-11T04:11:48.552Z,25.20
2023-01-11T04:12:51.062Z,25.30
2023-01-11T04:13:53.001Z,25.64
2023-01-11T04:14:54.978Z,25.04
2023-01-11T04:15:56.871Z,24.51
2023-01-11T04:16:58.814Z,23.30
2023-01-11T04:18:05.029Z,24.39
2023-01-11T04:19:06.808Z,25.88
2023-01-11T04:20:11.031Z,25.24
2023-01-11T04:21:13.112Z,24.89
2023-01-11T04:22:15.061Z,24.40
2023-01-11T04:23:16.898Z,24.94
2023-01-11T04:24:19.170Z,25.02
2023-01-11T04:25:20.905Z,23.98
2023-01-11T04:26:23.050Z,25.28
2023-01-11T04:27:25.066Z,24.92
2023-01-11T04:28:26.897Z,25.59
2023-01-11T04:29:28.700Z,25.41
2023-01-11T04:30:30.571Z,26.24
2023-01-11T04:31:33.106Z,25.83
2023-01-11T04:32:35.084Z,24.04
2023-01-11T04:33:37.282Z,24.97
2023-01-11T04:34:39.111Z,26.05
2023-01-11T04:35:41.295Z,29.92
2023-01-11T04:36:43.197Z,30.24
2023-01-11T04:37:45.193Z,26.79
2023-01-11T04:38:47.066Z,29.11
2023-01-11T04:39:48.999Z,28.80
2023-01-11T04:41:11.558Z,28.13
2023-01-11T04:42:19.417Z,30.81
2023-01-11T04:43:21.270Z,29.66
2023-01-11T04:44:23.210Z,29.88
2023-01-11T04:45:25.175Z,30.53
2023-01-11T04:46:27.027Z,31.04
2023-01-11T04:47:29.074Z,31.17
2023-01-11T04:48:30.868Z,29.48
2023-01-11T04:49:32.673Z,30.43
2023-01-11T04:50:34.647Z,31.35
2023-01-11T04:51:36.604Z,30.99
2023-01-11T04:52:40.715Z,32.10
2023-01-11T04:53:42.862Z,33.34
2023-01-11T04:54:46.041Z,32.07
2023-01-11T04:55:47.860Z,32.64
2023-01-11T04:56:49.614Z,33.04
2023-01-11T04:57:51.967Z,32.45
2023-01-11T04:58:54.076Z,33.76
2023-01-11T04:59:55.860Z,33.55
2023-01-11T05:00:57.754Z,33.29
2023-01-11T05:01:59.655Z,33.32
2023-01-11T05:03:01.440Z,33.06
2023-01-11T05:04:03.790Z,31.50
2023-01-11T05:05:07.581Z,31.66
2023-01-11T05:06:09.858Z,30.48
2023-01-11T05:07:12.050Z,30.56
2023-01-11T05:08:13.809Z,31.98
2023-01-11T05:09:18.227Z,32.21
2023-01-11T05:10:21.099Z,30.90
2023-01-11T05:11:23.080Z,31.13
2023-01-11T05:12:25.456Z,31.65
2023-01-11T05:13:43.598Z,33.50
2023-01-11T05:14:45.571Z,31.70
2023-01-11T05:15:48.076Z,31.70
2023-01-11T05:16:50.136Z,32.92
2023-01-11T05:17:52.413Z,33.79
2023-01-11T05:18:57.395Z,32.44
2023-01-11T05:19:59.347Z,31.37
2023-01-11T05:21:02.275Z,31.41
2023-01-11T05:22:04.111Z,32.41
2023-01-11T05:23:05.930Z,30.19
2023-01-11T05:24:12.789Z,32.51
2023-01-11T05:25:14.756Z,30.50
2023-01-11T05:26:20.516Z,30.88
2023-01-11T05:27:22.425Z,31.60
2023-01-11T05:28:24.292Z,30.65
2023-01-11T05:29:26.652Z,31.47
2023-01-11T05:30:29.112Z,31.38
2023-01-11T05:31:32.953Z,31.67
2023-01-11T05:32:34.732Z,31.13
2023-01-11T05:33:36.890Z,30.31
2023-01-11T05:34:38.789Z,31.84
2023-01-11T05:35:40.857Z,31.34
2023-01-11T05:36:44.099Z,30.74
2023-01-11T05:37:45.985Z,31.03
2023-01-11T05:38:50.057Z,30.00
2023-01-11T05:39:52.097Z,28.84
2023-01-11T05:40:59.026Z,28.24
2023-01-11T05:42:00.879Z,27.73
2023-01-11T05:43:02.743Z,26.59
2023-01-11T05:44:23.878Z,27.66
2023-01-11T05:45:35.696Z,28.11
2023-01-11T05:46:40.199Z,27.39
2023-01-11T05:47:42.075Z,28.39
2023-01-11T05:48:43.891Z,27.41
2023-01-11T05:49:45.770Z,26.78
2023-01-11T05:50:56.465Z,26.39
2023-01-11T05:51:58.331Z,29.70
2023-01-11T05:53:00.142Z,28.41
2023-01-11T05:54:03.956Z,29.83
2023-01-11T05:55:06.939Z,28.21
2023-01-11T05:56:09.142Z,29.13
2023-01-11T05:57:11.948Z,28.37
2023-01-11T05:58:13.807Z,26.03
2023-01-11T05:59:15.650Z,27.70
2023-01-11T06:00:17.995Z,27.89
2023-01-11T06:01:22.759Z,25.10
2023-01-11T06:02:24.781Z,23.38
2023-01-11T06:03:27.498Z,24.17
2023-01-11T06:04:29.592Z,23.78
2023-01-11T06:05:34.850Z,24.02
2023-01-11T06:06:37.086Z,23.56
2023-01-11T06:07:40.114Z,23.47
2023-01-11T06:08:42.063Z,24.88
2023-01-11T06:09:43.884Z,25.14
2023-01-11T06:10:54.219Z,22.05
2023-01-11T06:11:56.123Z,22.34
2023-01-11T06:13:18.060Z,22.38
2023-01-11T06:14:19.941Z,22.57
2023-01-11T06:15:21.792Z,22.58
2023-01-11T06:16:23.862Z,21.85
2023-01-11T06:17:26.551Z,21.95
2023-01-11T06:18:30.586Z,21.88
2023-01-11T06:19:32.461Z,21.71
2023-01-11T06:20:34.366Z,22.71
2023-01-11T06:21:36.207Z,23.86
2023-01-11T06:22:38.021Z,21.49
2023-01-11T06:23:43.304Z,23.19
2023-01-11T06:24:45.143Z,22.65
2023-01-11T06:25:47.363Z,22.42
2023-01-11T06:26:53.034Z,22.82
2023-01-11T06:27:54.871Z,21.31
2023-01-11T06:28:57.014Z,22.93
2023-01-11T06:29:58.804Z,23.66
2023-01-11T06:31:01.443Z,22.84
2023-01-11T06:32:03.625Z,22.79
2023-01-11T06:33:07.066Z,23.11
2023-01-11T06:34:09.237Z,22.59
2023-01-11T06:35:12.560Z,24.19
2023-01-11T06:36:16.148Z,24.98
2023-01-11T06:37:18.052Z,26.36
2023-01-11T06:38:22.258Z,25.58
2023-01-11T06:39:24.112Z,23.15
2023-01-11T06:40:26.106Z,23.94
2023-01-11T06:41:28.959Z,23.65
2023-01-11T06:42:30.842Z,23.95
2023-01-11T06:43:32.973Z,24.45
2023-01-11T06:44:36.072Z,23.85
2023-01-11T06:45:41.259Z,23.01
2023-01-11T06:46:43.041Z,23.20
2023-01-11T06:47:44.829Z,24.58
2023-01-11T06:48:47.505Z,24.43
2023-01-11T06:49:49.301Z,25.26
2023-01-11T06:50:55.304Z,23.87
2023-01-11T06:51:57.135Z,26.55
2023-01-11T06:53:03.833Z,24.76
2023-01-11T06:54:05.744Z,25.57
2023-01-11T06:55:08.158Z,25.91
2023-01-11T06:56:16.675Z,23.46
2023-01-11T06:57:18.499Z,25.84
2023-01-11T06:58:22.442Z,25.45
2023-01-11T06:59:24.641Z,24.28
2023-01-11T07:00:26.684Z,22.78
2023-01-11T07:01:30.545Z,23.11
2023-01-11T07:02:32.642Z,22.66
2023-01-11T07:03:34.798Z,23.81
2023-01-11T07:04:36.802Z,24.01
2023-01-11T07:05:39.598Z,23.22
2023-01-11T07:06:41.447Z,24.36
2023-01-11T07:07:44.239Z,22.82
2023-01-11T07:08:46.214Z,23.58
2023-01-11T07:09:48.431Z,24.79
2023-01-11T07:10:50.485Z,25.12
2023-01-11T07:11:52.444Z,25.84
2023-01-11T07:12:54.756Z,25.12
2023-01-11T07:13:56.590Z,24.58
2023-01-11T07:14:58.457Z,22.88
2023-01-11T07:16:00.410Z,22.62
2023-01-11T07:17:02.385Z,23.98
2023-01-11T07:18:04.496Z,24.11
2023-01-11T07:19:06.913Z,25.84
2023-01-11T07:20:10.139Z,24.83
2023-01-11T07:21:12.008Z,24.32
2023-01-11T07:22:14.900Z,25.73
2023-01-11T07:23:16.881Z,25.34
2023-01-11T07:24:19.767Z,25.60
2023-01-11T07:25:22.116Z,24.87
2023-01-11T07:26:26.596Z,25.95
2023-01-11T07:27:28.793Z,24.25
2023-01-11T07:28:30.845Z,24.59
2023-01-11T07:29:32.692Z,24.46
2023-01-11T07:30:55.457Z,24.53
2023-01-11T07:31:58.741Z,25.55
2023-01-11T07:33:01.787Z,23.66
2023-01-11T07:34:04.307Z,24.66
2023-01-11T07:35:07.058Z,23.83
2023-01-11T07:36:09.593Z,23.22
2023-01-11T07:37:29.270Z,22.25
2023-01-11T07:38:32.160Z,23.52
2023-01-11T07:39:43.391Z,22.77
2023-01-11T07:40:45.935Z,24.03
2023-01-11T07:42:06.577Z,23.60
2023-01-11T07:43:15.130Z,23.38
2023-01-11T07:44:17.549Z,25.00
2023-01-11T07:45:19.461Z,23.40
2023-01-11T07:46:21.460Z,23.88
2023-01-11T07:47:23.885Z,23.37
2023-01-11T07:48:26.897Z,23.33
2023-01-11T07:49:29.609Z,24.82
2023-01-11T07:50:31.955Z,25.17
2023-01-11T07:51:33.767Z,22.99
2023-01-11T07:52:35.893Z,24.72
2023-01-11T07:53:37.914Z,23.08
2023-01-11T07:54:39.684Z,24.40
2023-01-11T07:55:41.912Z,26.05
2023-01-11T07:56:44.002Z,25.13
2023-01-11T07:57:45.861Z,24.83
2023-01-11T07:58:47.782Z,25.36
2023-01-11T07:59:49.667Z,24.99
2023-01-11T08:00:51.932Z,24.78
2023-01-11T08:01:54.366Z,25.69
2023-01-11T08:02:56.342Z,26.37
2023-01-11T08:04:00.116Z,26.47
2023-01-11T08:05:03.271Z,27.64
2023-01-11T08:06:05.905Z,27.83
2023-01-11T08:07:07.737Z,26.72
2023-01-11T08:08:09.968Z,26.55
2023-01-11T08:09:12.035Z,25.77
2023-01-11T08:10:14.335Z,25.53
2023-01-11T08:11:34.691Z,27.53
2023-01-11T08:13:03.960Z,28.81
2023-01-11T08:14:24.655Z,28.98
2023-01-11T08:15:26.501Z,29.16
2023-01-11T08:16:28.423Z,26.88
2023-01-11T08:17:30.682Z,27.90
2023-01-11T08:18:32.691Z,27.50
2023-01-11T08:19:34.860Z,27.30
2023-01-11T08:20:37.485Z,29.08
2023-01-11T08:21:39.292Z,28.20
2023-01-11T08:22:41.051Z,28.63
2023-01-11T08:23:43.166Z,28.99
2023-01-11T08:24:44.982Z,28.14
2023-01-11T08:25:47.405Z,27.48
2023-01-11T08:26:49.220Z,28.39
2023-01-11T08:27:51.123Z,27.48
2023-01-11T08:28:55.029Z,29.18
2023-01-11T08:29:56.826Z,28.69
2023-01-11T08:30:58.620Z,30.05
2023-01-11T08:32:00.771Z,30.89
2023-01-11T08:33:04.222Z,29.93
2023-01-11T08:34:06.277Z,30.32
2023-01-11T08:35:08.684Z,30.38
2023-01-11T08:36:12.904Z,29.08
2023-01-11T08:37:14.916Z,28.86
2023-01-11T08:38:16.651Z,29.92
2023-01-11T08:39:18.501Z,29.15
2023-01-11T08:40:23.592Z,28.54
2023-01-11T08:41:25.894Z,29.51
2023-01-11T08:42:27.648Z,29.54
2023-01-11T08:43:32.390Z,29.84
2023-01-11T08:44:34.828Z,28.65
2023-01-11T08:45:36.853Z,28.73
2023-01-11T08:46:38.820Z,29.66
2023-01-11T08:47:40.619Z,29.73
2023-01-11T08:48:42.944Z,30.76
2023-01-11T08:49:44.913Z,30.76
2023-01-11T08:50:46.745Z,31.24
2023-01-11T08:51:48.511Z,31.84
2023-01-11T08:52:51.920Z,30.77
2023-01-11T08:53:53.898Z,30.37
2023-01-11T08:54:55.925Z,29.76
2023-01-11T08:55:57.790Z,29.79
2023-01-11T08:56:59.560Z,30.28
2023-01-11T08:58:01.435Z,32.43
2023-01-11T08:59:05.324Z,32.83
2023-01-11T09:00:08.571Z,31.17
2023-01-11T09:01:12.120Z,32.89
2023-01-11T09:02:14.005Z,32.91
2023-01-11T09:03:16.047Z,31.45
2023-01-11T09:04:24.798Z,28.94
2023-01-11T09:05:26.886Z,29.37
2023-01-11T09:06:28.734Z,30.40
2023-01-11T09:07:30.489Z,31.43
2023-01-11T09:08:32.282Z,33.86
2023-01-11T09:09:34.065Z,33.51
2023-01-11T09:10:35.964Z,34.60
2023-01-11T09:11:57.026Z,33.27
2023-01-11T09:12:59.752Z,36.37
2023-01-11T09:14:01.851Z,33.14
2023-01-11T09:15:06.019Z,31.49
2023-01-11T09:16:08.038Z,31.23
2023-01-11T09:17:10.222Z,29.22
2023-01-11T09:18:12.946Z,28.19
2023-01-11T09:19:15.109Z,27.94
2023-01-11T09:20:17.800Z,26.91
2023-01-11T09:21:19.843Z,26.95
2023-01-11T09:22:21.865Z,26.50
2023-01-11T09:23:23.754Z,29.80
2023-01-11T09:24:25.594Z,27.24
2023-01-11T09:25:27.496Z,28.26
2023-01-11T09:26:29.666Z,26.69
2023-01-11T09:27:31.651Z,27.18
2023-01-11T09:28:33.424Z,28.48
2023-01-11T09:29:37.282Z,27.60
2023-01-11T09:30:39.552Z,28.55
2023-01-11T09:31:41.472Z,27.80
2023-01-11T09:32:43.497Z,26.48
2023-01-11T09:33:45.394Z,25.18
2023-01-11T09:34:49.623Z,25.72
2023-01-11T09:35:52.285Z,26.75
2023-01-11T09:36:56.935Z,26.71
2023-01-11T09:37:59.958Z,29.84
2023-01-11T09:39:05.778Z,28.31
2023-01-11T09:40:20.649Z,28.84
2023-01-11T09:41:31.921Z,30.14
2023-01-11T09:42:43.133Z,26.23
2023-01-11T09:44:10.450Z,24.44
2023-01-11T09:45:28.552Z,24.23
2023-01-11T09:46:33.815Z,24.14
2023-01-11T09:48:01.257Z,24.84
2023-01-11T09:49:03.699Z,26.40
2023-01-11T09:50:17.277Z,26.26
2023-01-11T09:51:20.753Z,22.57
2023-01-11T09:52:33.259Z,21.94
2023-01-11T09:53:38.340Z,24.12
2023-01-11T09:54:40.720Z,23.51
2023-01-11T09:55:49.609Z,21.67
2023-01-11T09:57:18.480Z,21.26
2023-01-11T09:58:55.063Z,21.41
2023-01-11T10:00:10.210Z,21.49
2023-01-11T10:01:25.972Z,21.16
2023-01-11T10:02:48.367Z,19.52
2023-01-11T10:04:37.463Z,19.36
2023-01-11T10:06:06.320Z,19.64
2023-01-11T10:07:43.359Z,20.48
2023-01-11T10:18:30.654Z,20.69
2023-01-11T10:18:39.202Z,19.07
2023-01-11T10:18:39.850Z,18.93
2023-01-11T10:19:41.067Z,19.29
2023-01-11T10:20:52.188Z,18.26
2023-01-11T10:22:19.737Z,17.61
2023-01-11T10:23:41.901Z,18.01
2023-01-11T10:24:50.578Z,18.09
2023-01-11T10:25:56.754Z,17.06
2023-01-11T10:27:03.922Z,16.00
2023-01-11T10:28:20.148Z,15.13
2023-01-11T10:29:50.745Z,15.77
2023-01-11T10:30:59.377Z,17.03
2023-01-11T10:32:02.640Z,15.07
2023-01-11T10:33:29.371Z,15.33
2023-01-11T10:35:14.607Z,14.83
2023-01-11T10:36:50.906Z,15.13
2023-01-11T10:38:22.106Z,13.99
2023-01-11T10:40:04.943Z,13.59
2023-01-11T10:41:43.133Z,15.28
2023-01-11T10:43:09.344Z,14.52
2023-01-11T10:44:52.776Z,13.72
2023-01-11T10:47:20.503Z,13.66
2023-01-11T10:48:37.108Z,13.27
2023-01-11T10:49:55.978Z,13.51
2023-01-11T10:51:12.096Z,12.66
2023-01-11T10:52:41.900Z,13.03
2023-01-11T10:54:06.551Z,13.34
2023-01-11T10:55:13.309Z,12.98
2023-01-11T10:56:36.332Z,12.87
2023-01-11T10:58:12.235Z,14.19
2023-01-11T10:59:26.899Z,23.73
2023-01-11T11:00:44.924Z,18.16
2023-01-11T11:01:59.534Z,13.12
2023-01-11T11:03:23.157Z,13.63
2023-01-11T11:04:50.102Z,12.59
2023-01-11T11:05:59.579Z,12.47
2023-01-11T11:07:18.089Z,12.99
2023-01-11T11:08:40.304Z,12.22
2023-01-11T11:10:26.048Z,12.31
2023-01-11T11:11:36.514Z,13.49
2023-01-11T11:12:55.747Z,12.97
2023-01-11T11:14:00.792Z,14.24
2023-01-11T11:15:13.408Z,13.82
2023-01-11T11:16:24.388Z,14.10
2023-01-11T11:17:36.346Z,13.47
2023-01-11T11:18:39.191Z,12.71
2023-01-11T11:19:41.981Z,13.40
2023-01-11T11:20:46.467Z,12.52
2023-01-11T11:21:52.476Z,11.45
2023-01-11T11:22:56.340Z,11.49
2023-01-11T11:24:22.033Z,10.85
2023-01-11T11:25:41.399Z,10.66
2023-01-11T11:26:52.351Z,10.88
2023-01-11T11:28:04.624Z,10.99
2023-01-11T11:29:10.041Z,10.61
2023-01-11T11:30:14.540Z,9.94
2023-01-11T11:31:16.406Z,10.60
2023-01-11T11:32:36.761Z,10.35
2023-01-11T11:33:41.170Z,9.81
2023-01-11T11:34:48.779Z,10.33
2023-01-11T11:36:04.839Z,10.51
2023-01-11T11:37:09.357Z,9.90
2023-01-11T11:38:23.531Z,10.00
2023-01-11T11:39:31.114Z,10.27
2023-01-11T11:40:38.464Z,10.43
2023-01-11T11:42:04.780Z,10.42
2023-01-11T11:43:24.244Z,10.02
2023-01-11T11:44:28.457Z,10.58
2023-01-11T11:45:30.450Z,10.54
2023-01-11T11:46:32.282Z,9.85
2023-01-11T11:47:34.140Z,10.14
2023-01-11T11:48:36.173Z,10.40
2023-01-11T11:49:39.828Z,10.82
2023-01-11T11:50:45.106Z,10.80
2023-01-11T11:51:48.581Z,11.01
2023-01-11T11:53:02.973Z,9.78
2023-01-11T11:54:04.985Z,10.27
2023-01-11T11:55:10.106Z,10.31
2023-01-11T11:56:24.819Z,11.06
2023-01-11T11:57:33.779Z,10.79
2023-01-11T11:58:42.424Z,11.07
2023-01-11T11:59:48.488Z,11.14
2023-01-11T12:00:52.940Z,10.49
2023-01-11T12:02:03.719Z,10.57
2023-01-11T12:03:21.827Z,11.77
2023-01-11T12:04:38.111Z,11.31
2023-01-11T12:06:09.225Z,10.95
2023-01-11T12:07:16.431Z,11.31
2023-01-11T12:08:19.158Z,10.86
2023-01-11T12:09:34.075Z,11.86
2023-01-11T12:10:35.971Z,11.23
2023-01-11T12:11:42.179Z,10.49
2023-01-11T12:12:55.938Z,10.70
2023-01-11T12:14:21.167Z,10.97
2023-01-11T12:15:31.433Z,10.83
2023-01-11T12:16:39.784Z,10.86
2023-01-11T12:17:43.231Z,11.83
2023-01-11T12:18:45.097Z,11.01
2023-01-11T12:19:47.836Z,11.35
2023-01-11T12:20:49.692Z,11.53
2023-01-11T12:21:51.818Z,11.15
2023-01-11T12:23:18.541Z,10.06
2023-01-11T12:24:20.969Z,10.72
2023-01-11T12:25:25.564Z,11.92
2023-01-11T12:26:40.793Z,10.86
2023-01-11T12:28:09.000Z,11.01
2023-01-11T12:29:24.112Z,11.25
2023-01-11T12:30:46.850Z,10.55
2023-01-11T12:32:04.969Z,11.01
2023-01-11T12:33:44.736Z,10.60
2023-01-11T12:35:16.169Z,10.52
2023-01-11T12:36:36.396Z,11.41
2023-01-11T12:38:16.134Z,10.41
2023-01-11T12:39:24.931Z,11.09
2023-01-11T12:40:32.794Z,10.72
2023-01-11T12:41:53.481Z,10.24
2023-01-11T12:43:23.190Z,10.18
2023-01-11T12:44:48.744Z,11.25
2023-01-11T12:46:28.541Z,9.92
2023-01-11T12:48:08.625Z,10.34
2023-01-11T12:49:36.386Z,10.42
2023-01-11T12:50:52.621Z,10.66
2023-01-11T12:52:27.791Z,10.23
2023-01-11T12:53:39.697Z,10.61
2023-01-11T12:55:01.610Z,10.43
2023-01-11T12:56:25.298Z,10.20
2023-01-11T12:57:39.536Z,8.96
2023-01-11T12:59:10.390Z,8.02
2023-01-11T13:00:20.136Z,8.92
2023-01-11T13:01:30.467Z,8.61
2023-01-11T13:02:56.763Z,8.03
2023-01-11T13:04:28.259Z,6.72
2023-01-11T13:05:57.186Z,7.24
2023-01-11T13:07:14.874Z,7.22
2023-01-11T13:08:25.236Z,7.15
2023-01-11T13:09:32.454Z,6.57
2023-01-11T13:11:02.184Z,6.58
2023-01-11T13:12:27.627Z,6.09
2023-01-11T13:13:34.478Z,6.22
2023-01-11T13:14:57.812Z,6.08
2023-01-11T13:16:25.948Z,6.92
2023-01-11T13:18:01.612Z,6.83
2023-01-11T13:19:37.329Z,7.21
2023-01-11T13:21:01.227Z,7.15
2023-01-11T13:22:16.111Z,6.99
2023-01-11T13:23:54.739Z,6.29
2023-01-11T13:25:01.992Z,6.59
2023-01-11T13:26:17.508Z,6.55
2023-01-11T13:27:24.466Z,6.88
2023-01-11T13:28:38.340Z,6.83
2023-01-11T13:29:45.526Z,7.68
2023-01-11T13:30:49.733Z,7.19
2023-01-11T13:31:54.360Z,6.95
2023-01-11T13:33:04.591Z,7.06
2023-01-11T13:34:27.895Z,7.09
2023-01-11T13:35:49.825Z,6.76
2023-01-11T13:37:11.550Z,6.72
2023-01-11T13:38:38.029Z,7.22
2023-01-11T13:39:59.308Z,7.79
2023-01-11T13:41:13.247Z,8.25
2023-01-11T13:42:24.985Z,8.81
2023-01-11T13:43:50.316Z,8.80
2023-01-11T13:45:03.631Z,9.25
2023-01-11T13:46:22.406Z,10.27
2023-01-11T13:47:35.302Z,11.09
2023-01-11T13:48:42.921Z,12.14
2023-01-11T13:49:53.796Z,13.20
2023-01-11T13:51:27.795Z,14.72
2023-01-11T13:53:03.361Z,16.46
2023-01-11T13:54:22.325Z,14.12
2023-01-11T13:55:40.678Z,13.43
2023-01-11T13:57:05.335Z,13.38
2023-01-11T13:58:29.137Z,12.43
2023-01-11T13:59:46.155Z,12.13
2023-01-11T14:01:09.102Z,12.28
2023-01-11T14:02:48.022Z,12.53
2023-01-11T14:04:01.406Z,12.21
2023-01-11T14:05:17.222Z,11.77
2023-01-11T14:06:31.048Z,13.67
2023-01-11T14:08:00.641Z,14.43
2023-01-11T14:09:43.705Z,14.18
2023-01-11T14:11:10.527Z,14.46
2023-01-11T14:12:47.244Z,14.76
2023-01-11T14:14:11.017Z,15.18
2023-01-11T14:15:53.654Z,14.83
2023-01-11T14:17:03.793Z,14.31
2023-01-11T14:18:51.496Z,14.49
2023-01-11T14:20:11.979Z,14.65
2023-01-11T14:21:28.619Z,15.43
2023-01-11T14:22:39.159Z,13.78
2023-01-11T14:23:53.752Z,15.28
2023-01-11T14:25:13.376Z,15.49
2023-01-11T14:26:21.149Z,15.14
2023-01-11T14:28:05.213Z,15.81
2023-01-11T14:29:30.927Z,14.28
2023-01-11T14:30:52.718Z,15.17
2023-01-11T14:32:17.454Z,16.30
2023-01-11T14:33:58.273Z,15.89
2023-01-11T14:35:24.413Z,16.54
2023-01-11T14:36:44.917Z,16.37
2023-01-11T14:38:13.140Z,18.20
2023-01-11T14:39:52.769Z,16.58
2023-01-11T14:41:28.344Z,16.93
2023-01-11T14:43:07.879Z,16.10
2023-01-11T14:44:30.648Z,15.76
2023-01-11T14:45:54.424Z,16.89
2023-01-11T14:47:09.898Z,15.70
2023-01-11T14:48:36.064Z,16.03
2023-01-11T14:50:15.829Z,16.53
2023-01-11T14:51:32.509Z,17.58
2023-01-11T14:52:40.625Z,15.90
2023-01-11T14:53:52.378Z,16.26
2023-01-11T14:54:57.891Z,16.77
2023-01-11T14:56:00.105Z,17.12
2023-01-11T14:57:02.198Z,16.25
2023-01-11T14:58:26.452Z,15.78
2023-01-11T14:59:31.120Z,15.69
2023-01-11T15:00:34.316Z,15.72
2023-01-11T15:02:23.687Z,15.86
2023-01-11T15:03:37.415Z,16.50
2023-01-11T15:04:59.861Z,16.41
2023-01-11T15:06:13.766Z,17.70
2023-01-11T15:07:30.840Z,16.31
2023-01-11T15:08:46.024Z,17.41
2023-01-11T15:09:50.296Z,22.33
2023-01-11T15:11:07.805Z,17.19
2023-01-11T15:12:23.487Z,16.97